createdAt,value
2018-03-07T00:00:13.733Z,2.26
2018-03-07T00:02:39.770Z,2.30
2018-03-07T00:05:05.865Z,2.33
2018-03-07T00:07:31.885Z,2.35
2018-03-07T00:09:58.087Z,2.40
2018-03-07T00:12:24.191Z,2.39
2018-03-07T00:14:50.329Z,2.36
2018-03-07T00:17:16.400Z,2.37
2018-03-07T00:19:42.612Z,2.38
2018-03-07T00:22:08.658Z,2.40
2018-03-07T00:24:34.761Z,2.41
2018-03-07T00:27:00.869Z,2.41
2018-03-07T00:29:26.902Z,2.41
2018-03-07T00:31:53.048Z,2.41
2018-03-07T00:34:19.103Z,2.41
2018-03-07T00:36:45.248Z,2.37
2018-03-07T00:39:11.293Z,2.36
2018-03-07T00:41:37.340Z,2.37
2018-03-07T00:44:03.556Z,2.32
2018-03-07T00:46:29.592Z,2.34
2018-03-07T00:48:56.033Z,2.33
2018-03-07T00:51:22.040Z,2.34
2018-03-07T00:53:48.103Z,2.35
2018-03-07T00:56:14.167Z,2.34
2018-03-07T00:58:40.274Z,2.35
2018-03-07T01:01:06.500Z,2.41
2018-03-07T01:03:32.710Z,2.44
2018-03-07T01:05:58.765Z,2.42
2018-03-07T01:08:24.847Z,2.47
2018-03-07T01:10:50.915Z,2.50
2018-03-07T01:13:17.035Z,2.46
2018-03-07T01:15:43.085Z,2.47
2018-03-07T01:18:09.174Z,2.54
2018-03-07T01:20:35.411Z,2.54
2018-03-07T01:23:01.479Z,2.54
2018-03-07T01:25:27.725Z,2.52
2018-03-07T01:27:53.796Z,2.52
2018-03-07T01:30:19.866Z,2.52
2018-03-07T01:32:45.951Z,2.55
2018-03-07T01:35:12.034Z,2.56
2018-03-07T01:37:38.096Z,2.57
2018-03-07T01:40:04.177Z,2.54
2018-03-07T01:42:30.249Z,2.57
2018-03-07T01:44:56.312Z,2.58
2018-03-07T01:47:22.546Z,2.59
2018-03-07T01:49:48.616Z,2.59
2018-03-07T01:52:14.656Z,2.60
2018-03-07T01:54:40.702Z,2.62
2018-03-07T01:57:06.779Z,2.64
2018-03-07T01:59:33.047Z,2.63
2018-03-07T02:01:59.107Z,2.61
2018-03-07T02:04:25.156Z,2.60
2018-03-07T02:06:51.186Z,2.55
2018-03-07T02:09:17.282Z,2.51
2018-03-07T02:11:43.335Z,2.53
2018-03-07T02:14:09.398Z,2.54
2018-03-07T02:16:35.486Z,2.53
2018-03-07T02:19:01.533Z,2.54
2018-03-07T02:21:27.671Z,2.54
2018-03-07T02:23:53.874Z,2.53
2018-03-07T02:26:19.979Z,2.52
2018-03-07T02:28:46.026Z,2.54
2018-03-07T02:31:12.210Z,2.56
2018-03-07T02:33:38.290Z,2.56
2018-03-07T02:36:04.323Z,2.56
2018-03-07T02:38:30.368Z,2.56
2018-03-07T02:40:56.462Z,2.51
2018-03-07T02:43:22.581Z,2.53
2018-03-07T02:45:48.611Z,2.52
2018-03-07T02:48:14.633Z,2.48
2018-03-07T02:50:40.668Z,2.48
2018-03-07T02:53:06.700Z,2.47
2018-03-07T02:55:32.830Z,2.45
2018-03-07T02:57:58.911Z,2.45
2018-03-07T03:00:25.037Z,2.42
2018-03-07T03:02:51.087Z,2.37
2018-03-07T03:05:17.155Z,2.35
2018-03-07T03:07:43.237Z,2.35
2018-03-07T03:10:09.265Z,2.33
2018-03-07T03:12:35.429Z,2.31
2018-03-07T03:15:01.495Z,2.27
2018-03-07T03:17:27.817Z,2.25
2018-03-07T03:19:53.912Z,2.19
2018-03-07T03:22:20.001Z,2.13
2018-03-07T03:24:46.063Z,2.12
2018-03-07T03:27:12.103Z,2.11
2018-03-07T03:29:38.618Z,2.10
2018-03-07T03:32:04.701Z,2.08
2018-03-07T03:34:30.838Z,2.08
2018-03-07T03:36:56.919Z,2.12
2018-03-07T03:39:22.940Z,2.15
2018-03-07T03:41:49.227Z,2.17
2018-03-07T03:44:15.289Z,2.15
2018-03-07T03:46:41.602Z,2.11
2018-03-07T03:49:07.637Z,2.08
2018-03-07T03:51:33.800Z,2.06
2018-03-07T03:53:59.852Z,2.04
2018-03-07T03:56:26.542Z,2.01
2018-03-07T03:58:52.625Z,2.01
2018-03-07T04:01:18.690Z,1.96
2018-03-07T04:03:44.732Z,1.96
2018-03-07T04:06:11.008Z,1.92
2018-03-07T04:08:37.075Z,1.90
2018-03-07T04:11:03.136Z,1.92
2018-03-07T04:13:29.176Z,1.91
2018-03-07T04:15:55.249Z,1.91
2018-03-07T04:18:21.295Z,1.89
2018-03-07T04:20:47.354Z,1.87
2018-03-07T04:23:13.399Z,1.86
2018-03-07T04:25:39.770Z,1.89
2018-03-07T04:28:05.824Z,1.90
2018-03-07T04:30:31.858Z,1.91
2018-03-07T04:32:58.106Z,1.90
2018-03-07T04:35:24.127Z,1.90
2018-03-07T04:37:50.357Z,1.87
2018-03-07T04:40:16.438Z,1.86
2018-03-07T04:42:42.514Z,1.87
2018-03-07T04:45:08.565Z,1.87
2018-03-07T04:47:34.598Z,1.86
2018-03-07T04:50:00.669Z,1.84
2018-03-07T04:52:26.715Z,1.86
2018-03-07T04:54:52.761Z,1.91
2018-03-07T04:57:18.771Z,1.92
2018-03-07T04:59:45.104Z,1.93
2018-03-07T05:02:11.174Z,1.97
2018-03-07T05:04:37.194Z,1.99
2018-03-07T05:07:03.393Z,1.95
2018-03-07T05:09:29.571Z,1.92
2018-03-07T05:11:55.650Z,1.96
2018-03-07T05:14:21.724Z,2.02
2018-03-07T05:16:47.833Z,2.02
2018-03-07T05:19:13.936Z,2.01
2018-03-07T05:21:39.990Z,1.96
2018-03-07T05:24:06.030Z,1.94
2018-03-07T05:26:32.104Z,1.93
2018-03-07T05:28:58.220Z,1.89
2018-03-07T05:31:24.271Z,1.89
2018-03-07T05:33:50.480Z,1.90
2018-03-07T05:36:16.581Z,1.92
2018-03-07T05:38:42.595Z,1.90
2018-03-07T05:41:08.817Z,1.93
2018-03-07T05:43:34.849Z,1.89
2018-03-07T05:46:01.281Z,1.88
2018-03-07T05:48:27.500Z,1.84
2018-03-07T05:50:53.608Z,1.82
2018-03-07T05:53:19.998Z,1.79
2018-03-07T05:55:46.085Z,1.77
2018-03-07T05:58:12.195Z,1.78
2018-03-07T06:00:39.208Z,1.78
2018-03-07T06:03:05.325Z,1.81
2018-03-07T06:05:31.485Z,1.77
2018-03-07T06:07:58.058Z,1.84
2018-03-07T06:10:24.245Z,1.85
2018-03-07T06:12:50.391Z,1.86
2018-03-07T06:15:16.482Z,1.88
2018-03-07T06:17:42.547Z,1.88
2018-03-07T06:20:08.638Z,1.87
2018-03-07T06:22:34.738Z,1.89
2018-03-07T06:25:01.437Z,1.94
2018-03-07T06:27:27.515Z,1.94
2018-03-07T06:29:54.168Z,1.94
2018-03-07T06:32:20.764Z,1.96
2018-03-07T06:34:46.792Z,1.95
2018-03-07T06:37:12.830Z,1.92
2018-03-07T06:39:39.067Z,1.90
2018-03-07T06:42:05.134Z,1.86
2018-03-07T06:51:15.314Z,1.94
2018-03-07T06:53:41.538Z,1.99
2018-03-07T06:56:07.601Z,1.99
2018-03-07T06:58:33.960Z,1.98
2018-03-07T07:01:00.063Z,1.96
2018-03-07T07:03:26.090Z,1.98
2018-03-07T07:05:52.180Z,1.99
2018-03-07T07:08:18.275Z,1.99
2018-03-07T07:10:44.552Z,1.99
2018-03-07T07:13:10.629Z,2.00
2018-03-07T07:15:36.692Z,2.02
2018-03-07T07:18:03.096Z,2.03
2018-03-07T07:20:29.123Z,2.05
2018-03-07T07:22:55.226Z,2.10
2018-03-07T07:25:21.314Z,2.10
2018-03-07T07:27:47.387Z,2.10
2018-03-07T07:30:13.423Z,2.07
2018-03-07T07:32:39.492Z,2.08
2018-03-07T07:35:05.615Z,2.10
2018-03-07T07:37:31.830Z,2.14
2018-03-07T07:39:57.804Z,2.15
2018-03-07T07:42:23.914Z,2.15
2018-03-07T07:44:50.012Z,2.16
2018-03-07T07:47:16.122Z,2.11
2018-03-07T07:49:42.184Z,2.16
2018-03-07T07:52:08.267Z,2.17
2018-03-07T07:54:34.415Z,2.18
2018-03-07T07:57:00.508Z,2.18
2018-03-07T07:59:26.596Z,2.18
2018-03-07T08:01:52.884Z,2.22
2018-03-07T08:04:19.031Z,2.24
2018-03-07T08:06:45.092Z,2.24
2018-03-07T08:09:11.115Z,2.27
2018-03-07T08:11:37.207Z,2.26
2018-03-07T08:14:03.640Z,2.29
2018-03-07T08:16:29.695Z,2.29
2018-03-07T08:18:55.762Z,2.30
2018-03-07T08:21:21.872Z,2.31
2018-03-07T08:23:47.944Z,2.34
2018-03-07T08:26:14.141Z,2.35
2018-03-07T08:28:41.161Z,2.36
2018-03-07T08:31:07.198Z,2.44
2018-03-07T08:33:33.265Z,2.48
2018-03-07T08:35:59.329Z,2.55
2018-03-07T08:38:25.572Z,2.59
2018-03-07T08:40:51.646Z,2.59
2018-03-07T08:43:18.027Z,2.59
2018-03-07T08:45:44.085Z,2.58
2018-03-07T08:48:10.126Z,2.58
2018-03-07T08:50:36.547Z,2.52
2018-03-07T08:53:02.562Z,2.50
2018-03-07T08:55:28.617Z,2.54
2018-03-07T08:57:54.924Z,2.59
2018-03-07T09:00:20.983Z,2.61
2018-03-07T09:02:47.058Z,2.64
2018-03-07T09:05:13.136Z,2.68
2018-03-07T09:07:39.220Z,2.74
2018-03-07T09:10:05.267Z,2.75
2018-03-07T09:12:31.303Z,2.77
2018-03-07T09:14:57.389Z,2.80
2018-03-07T09:17:23.414Z,2.81
2018-03-07T09:19:49.609Z,2.82
2018-03-07T09:22:15.679Z,2.79
2018-03-07T09:24:41.768Z,2.82
2018-03-07T09:27:07.793Z,2.81
2018-03-07T09:29:33.854Z,2.79
2018-03-07T09:31:59.967Z,2.81
2018-03-07T09:34:26.007Z,2.82
2018-03-07T09:36:52.057Z,2.84
2018-03-07T09:39:18.242Z,2.87
2018-03-07T09:41:44.323Z,2.90
2018-03-07T09:44:10.363Z,2.96
2018-03-07T09:46:36.463Z,2.93
2018-03-07T09:49:02.532Z,2.93
2018-03-07T09:51:28.563Z,2.78
2018-03-07T09:53:54.638Z,2.81
2018-03-07T09:56:20.802Z,2.80
2018-03-07T09:58:46.834Z,2.84
2018-03-07T10:01:13.092Z,2.77
2018-03-07T10:03:39.164Z,2.83
2018-03-07T10:06:05.277Z,2.82
2018-03-07T10:08:31.383Z,2.88
2018-03-07T10:10:57.721Z,2.97
2018-03-07T10:13:23.841Z,3.00
2018-03-07T10:15:49.884Z,3.00
2018-03-07T10:18:16.112Z,3.04
2018-03-07T10:20:42.159Z,3.13
2018-03-07T10:23:08.303Z,3.18
2018-03-07T10:25:34.544Z,3.22
2018-03-07T10:28:00.623Z,3.19
2018-03-07T10:30:26.692Z,3.25
2018-03-07T10:32:53.032Z,3.33
2018-03-07T10:35:19.108Z,3.34
2018-03-07T10:37:45.155Z,3.35
2018-03-07T10:40:11.260Z,3.39
2018-03-07T10:42:37.316Z,3.41
2018-03-07T10:45:03.596Z,3.48
2018-03-07T10:47:29.636Z,3.46
2018-03-07T10:49:55.896Z,3.59
2018-03-07T10:52:21.953Z,3.61
2018-03-07T10:54:48.100Z,3.66
2018-03-07T10:57:14.419Z,3.70
2018-03-07T10:59:40.479Z,3.70
2018-03-07T11:02:06.575Z,3.75
2018-03-07T11:04:47.536Z,3.78
2018-03-07T11:07:13.808Z,3.83
2018-03-07T11:09:39.857Z,3.92
2018-03-07T11:12:05.898Z,4.04
2018-03-07T11:14:31.942Z,4.01
2018-03-07T11:16:57.983Z,3.97
2018-03-07T11:19:24.074Z,3.99
2018-03-07T11:21:50.164Z,4.05
2018-03-07T11:24:16.208Z,4.16
2018-03-07T11:26:42.318Z,4.36
2018-03-07T11:29:08.366Z,4.47
2018-03-07T11:31:34.420Z,4.49
2018-03-07T11:34:00.454Z,4.49
2018-03-07T11:36:26.514Z,4.61
2018-03-07T11:38:52.564Z,4.66
2018-03-07T11:41:18.613Z,4.60
2018-03-07T11:43:44.702Z,4.61
2018-03-07T11:46:10.812Z,4.67
2018-03-07T11:48:36.992Z,4.73
2018-03-07T11:51:03.040Z,4.66
2018-03-07T11:53:29.124Z,4.77
2018-03-07T11:55:55.557Z,4.78
2018-03-07T11:58:21.615Z,4.82
2018-03-07T12:00:47.657Z,4.85
2018-03-07T12:03:13.740Z,4.87
2018-03-07T12:05:39.819Z,4.86
2018-03-07T12:08:05.901Z,5.10
2018-03-07T12:10:32.014Z,5.25
2018-03-07T12:12:58.082Z,5.28
2018-03-07T12:15:24.194Z,5.39
2018-03-07T12:17:50.252Z,5.32
2018-03-07T12:20:16.325Z,5.45
2018-03-07T12:22:42.464Z,5.44
2018-03-07T12:25:08.561Z,5.49
2018-03-07T12:27:34.632Z,5.57
2018-03-07T12:30:00.957Z,5.48
2018-03-07T12:32:26.996Z,5.64
2018-03-07T12:34:53.125Z,5.72
2018-03-07T12:37:19.170Z,5.81
2018-03-07T12:39:45.225Z,5.88
2018-03-07T12:42:11.310Z,6.04
2018-03-07T12:44:37.351Z,6.10
2018-03-07T12:47:03.474Z,6.17
2018-03-07T12:49:29.599Z,6.33
2018-03-07T12:51:55.684Z,6.46
2018-03-07T12:54:21.766Z,6.47
2018-03-07T12:56:47.834Z,6.48
2018-03-07T12:59:13.933Z,6.34
2018-03-07T13:01:40.012Z,6.36
2018-03-07T13:04:06.083Z,6.47
2018-03-07T13:06:32.370Z,6.54
2018-03-07T13:08:58.680Z,6.54
2018-03-07T13:11:24.722Z,6.65
2018-03-07T13:13:50.778Z,6.75
2018-03-07T13:16:17.142Z,7.03
2018-03-07T13:18:43.185Z,7.03
2018-03-07T13:21:09.324Z,7.00
2018-03-07T13:23:35.347Z,6.93
2018-03-07T13:26:01.436Z,7.29
2018-03-07T13:28:27.553Z,7.17
2018-03-07T13:30:53.656Z,7.19
2018-03-07T13:33:19.724Z,7.25
2018-03-07T13:35:45.755Z,7.20
2018-03-07T13:38:11.885Z,7.23
2018-03-07T13:40:37.957Z,7.22
2018-03-07T13:43:04.697Z,6.95
2018-03-07T13:45:30.742Z,6.97
2018-03-07T13:47:56.765Z,6.89
2018-03-07T13:50:22.876Z,6.87
2018-03-07T13:53:03.804Z,6.89
2018-03-07T13:55:29.871Z,6.87
2018-03-07T13:57:55.971Z,6.84
2018-03-07T14:00:22.049Z,6.86
2018-03-07T14:02:48.381Z,6.84
2018-03-07T14:05:14.530Z,6.73
2018-03-07T14:07:41.322Z,6.66
2018-03-07T14:10:07.370Z,6.55
2018-03-07T14:12:33.633Z,6.43
2018-03-07T14:14:59.704Z,6.35
2018-03-07T14:17:25.802Z,6.37
2018-03-07T14:19:51.829Z,6.42
2018-03-07T14:22:17.886Z,6.49
2018-03-07T14:24:44.174Z,6.48
2018-03-07T14:27:10.244Z,6.43
2018-03-07T14:29:36.336Z,6.48
2018-03-07T14:32:02.404Z,6.55
2018-03-07T14:34:28.503Z,6.56
2018-03-07T14:36:54.583Z,6.55
2018-03-07T14:39:20.683Z,6.54
2018-03-07T14:41:46.753Z,6.52
2018-03-07T14:44:12.798Z,6.49
2018-03-07T14:46:38.864Z,6.48
2018-03-07T14:49:05.159Z,6.46
2018-03-07T14:51:31.259Z,6.49
2018-03-07T14:53:57.325Z,6.47
2018-03-07T14:56:23.377Z,6.46
2018-03-07T14:58:49.497Z,6.44
2018-03-07T15:01:15.721Z,6.40
2018-03-07T15:03:41.819Z,6.42
2018-03-07T15:06:08.709Z,6.39
2018-03-07T15:08:34.944Z,6.32
2018-03-07T15:11:01.130Z,6.28
2018-03-07T15:13:27.176Z,6.28
2018-03-07T15:15:53.440Z,6.26
2018-03-07T15:18:19.504Z,6.29
2018-03-07T15:20:45.539Z,6.30
2018-03-07T15:23:11.695Z,6.34
2018-03-07T15:25:37.822Z,6.37
2018-03-07T15:28:03.906Z,6.40
2018-03-07T15:30:29.996Z,6.43
2018-03-07T15:32:56.088Z,6.42
2018-03-07T15:35:22.139Z,6.42
2018-03-07T15:37:48.203Z,6.39
2018-03-07T15:40:14.255Z,6.34
2018-03-07T15:42:40.315Z,6.30
2018-03-07T15:45:06.382Z,6.31
2018-03-07T15:47:32.465Z,6.35
2018-03-07T15:49:58.604Z,6.31
2018-03-07T15:52:24.630Z,6.26
2018-03-07T15:54:50.699Z,6.23
2018-03-07T15:57:16.719Z,6.22
2018-03-07T15:59:43.020Z,6.23
2018-03-07T16:02:09.214Z,6.21
2018-03-07T16:04:35.389Z,6.16
2018-03-07T16:07:01.874Z,6.18
2018-03-07T16:09:28.046Z,6.15
2018-03-07T16:11:54.135Z,6.13
2018-03-07T16:14:20.233Z,6.15
2018-03-07T16:16:46.367Z,6.18
2018-03-07T16:19:12.431Z,6.27
2018-03-07T16:21:38.529Z,6.31
2018-03-07T16:24:04.615Z,6.24
2018-03-07T16:26:31.562Z,6.30
2018-03-07T16:28:57.667Z,6.28
2018-03-07T16:31:23.800Z,6.18
2018-03-07T16:33:49.944Z,6.10
2018-03-07T16:36:16.064Z,6.01
2018-03-07T16:38:42.606Z,5.95
2018-03-07T16:41:08.688Z,5.87
2018-03-07T16:43:34.765Z,5.80
2018-03-07T16:46:00.906Z,5.77
2018-03-07T16:48:26.938Z,5.68
2018-03-07T16:50:53.348Z,5.63
2018-03-07T16:53:19.397Z,5.58
2018-03-07T16:55:45.452Z,5.56
2018-03-07T16:58:11.762Z,5.55
2018-03-07T17:00:37.878Z,5.46
2018-03-07T17:03:04.011Z,5.36
2018-03-07T17:05:30.065Z,5.35
2018-03-07T17:07:56.163Z,5.28
2018-03-07T17:10:22.228Z,5.24
2018-03-07T17:12:48.342Z,5.17
2018-03-07T17:15:14.466Z,5.15
2018-03-07T17:17:40.502Z,5.10
2018-03-07T17:20:06.589Z,5.10
2018-03-07T17:22:32.658Z,5.04
2018-03-07T17:24:58.686Z,5.02
2018-03-07T17:27:24.816Z,4.97
2018-03-07T17:29:50.890Z,5.01
2018-03-07T17:32:16.973Z,4.95
2018-03-07T17:34:43.200Z,4.87
2018-03-07T17:37:09.377Z,4.80
2018-03-07T17:39:35.451Z,4.81
2018-03-07T17:42:01.583Z,4.79
2018-03-07T17:44:27.652Z,4.76
2018-03-07T17:46:53.896Z,4.67
2018-03-07T17:49:19.948Z,4.65
2018-03-07T17:51:46.030Z,4.53
2018-03-07T17:54:12.149Z,4.49
2018-03-07T17:56:38.512Z,4.45
2018-03-07T17:59:05.132Z,4.37
2018-03-07T18:01:31.302Z,4.29
2018-03-07T18:03:57.420Z,4.21
2018-03-07T18:06:23.575Z,4.11
2018-03-07T18:08:49.658Z,4.01
2018-03-07T18:11:15.924Z,3.96
2018-03-07T18:13:42.029Z,3.89
2018-03-07T18:16:08.249Z,3.80
2018-03-07T18:18:34.394Z,3.67
2018-03-07T18:21:00.459Z,3.64
2018-03-07T18:23:42.267Z,3.59
2018-03-07T18:26:08.762Z,3.58
2018-03-07T18:28:34.903Z,3.62
2018-03-07T18:31:01.007Z,3.63
2018-03-07T18:33:27.114Z,3.73
2018-03-07T18:35:53.398Z,3.66
2018-03-07T18:38:19.518Z,3.60
2018-03-07T18:40:45.653Z,3.39
2018-03-07T18:43:11.907Z,3.32
2018-03-07T18:45:38.312Z,3.27
2018-03-07T18:48:04.522Z,3.18
2018-03-07T18:50:30.578Z,3.13
2018-03-07T18:52:56.857Z,3.09
2018-03-07T18:55:23.015Z,3.08
2018-03-07T18:57:49.196Z,3.10
2018-03-07T19:00:15.279Z,3.17
2018-03-07T19:02:41.353Z,3.17
2018-03-07T19:05:07.721Z,3.19
2018-03-07T19:07:33.800Z,3.18
2018-03-07T19:09:59.965Z,3.17
2018-03-07T19:12:26.052Z,3.12
2018-03-07T19:14:52.254Z,3.11
2018-03-07T19:17:18.425Z,3.13
2018-03-07T19:19:45.209Z,3.12
2018-03-07T19:22:11.415Z,3.15
2018-03-07T19:24:37.538Z,3.15
2018-03-07T19:27:04.016Z,3.14
2018-03-07T19:29:31.398Z,3.33
2018-03-07T19:31:57.542Z,3.52
2018-03-07T19:34:23.835Z,3.51
2018-03-07T19:36:50.584Z,3.58
2018-03-07T19:39:16.825Z,3.48
2018-03-07T19:41:42.922Z,3.50
2018-03-07T19:44:09.030Z,3.46
2018-03-07T19:46:35.427Z,3.32
2018-03-07T19:49:01.505Z,3.37
2018-03-07T19:51:27.603Z,3.25
2018-03-07T19:53:53.899Z,3.14
2018-03-07T19:56:20.059Z,3.09
2018-03-07T19:58:46.167Z,2.90
2018-03-07T20:01:12.297Z,2.81
2018-03-07T20:03:38.476Z,2.68
2018-03-07T20:06:04.584Z,2.54
2018-03-07T20:08:30.744Z,2.48
2018-03-07T20:10:57.306Z,2.51
2018-03-07T20:13:23.433Z,2.49
2018-03-07T20:15:49.602Z,2.47
2018-03-07T20:18:15.835Z,2.56
2018-03-07T20:20:41.879Z,2.57
2018-03-07T20:23:08.230Z,2.62
2018-03-07T20:25:34.462Z,2.60
2018-03-07T20:28:00.822Z,2.59
2018-03-07T20:30:26.936Z,2.62
2018-03-07T20:32:53.063Z,2.61
2018-03-07T20:35:19.475Z,2.67
2018-03-07T20:37:45.554Z,2.67
2018-03-07T20:40:11.770Z,2.66
2018-03-07T20:42:37.889Z,2.76
2018-03-07T20:45:04.032Z,2.84
2018-03-07T20:47:30.109Z,2.86
2018-03-07T20:49:56.415Z,2.88
2018-03-07T20:52:22.678Z,2.92
2018-03-07T20:54:48.791Z,2.94
2018-03-07T20:57:14.928Z,2.92
2018-03-07T20:59:41.106Z,2.94
2018-03-07T21:02:07.202Z,2.92
2018-03-07T21:04:33.248Z,2.93
2018-03-07T21:06:59.362Z,2.97
2018-03-07T21:09:26.005Z,3.03
2018-03-07T21:11:52.095Z,3.07
2018-03-07T21:14:19.213Z,3.13
2018-03-07T21:16:45.349Z,3.14
2018-03-07T21:19:11.439Z,3.17
2018-03-07T21:21:37.575Z,3.20
2018-03-07T21:24:03.605Z,3.19
2018-03-07T21:26:29.738Z,3.18
2018-03-07T21:28:56.570Z,3.17
2018-03-07T21:31:22.735Z,3.16
2018-03-07T21:33:48.863Z,3.18
2018-03-07T21:36:14.995Z,3.15
2018-03-07T21:38:41.277Z,3.12
2018-03-07T21:41:07.392Z,3.09
2018-03-07T21:43:33.655Z,3.11
2018-03-07T21:45:59.735Z,3.18
2018-03-07T21:48:26.797Z,3.16
2018-03-07T21:50:52.846Z,3.17
2018-03-07T21:53:19.377Z,3.20
2018-03-07T21:55:45.498Z,3.21
2018-03-07T21:58:11.679Z,3.20
2018-03-07T22:00:37.798Z,3.20
2018-03-07T22:03:03.872Z,3.23
2018-03-07T22:05:29.940Z,3.27
2018-03-07T22:07:56.024Z,3.31
2018-03-07T22:10:22.103Z,3.27
2018-03-07T22:12:48.167Z,3.28
2018-03-07T22:15:14.265Z,3.27
2018-03-07T22:17:40.336Z,3.29
2018-03-07T22:20:06.385Z,3.28
2018-03-07T22:22:32.426Z,3.28
2018-03-07T22:24:58.502Z,3.30
2018-03-07T22:27:24.711Z,3.16
2018-03-07T22:29:50.777Z,3.14
2018-03-07T22:32:16.883Z,3.05
2018-03-07T22:34:42.943Z,3.00
2018-03-07T22:37:09.033Z,2.88
2018-03-07T22:39:35.128Z,2.88
2018-03-07T22:42:01.415Z,2.88
2018-03-07T22:44:27.489Z,2.83
2018-03-07T22:46:53.573Z,2.77
2018-03-07T22:49:19.663Z,2.73
2018-03-07T22:51:45.744Z,2.67
2018-03-07T22:54:11.831Z,2.61
2018-03-07T22:56:37.906Z,2.63
2018-03-07T22:59:03.950Z,2.66
2018-03-07T23:01:30.018Z,2.68
2018-03-07T23:03:56.117Z,2.74
2018-03-07T23:06:22.272Z,2.79
2018-03-07T23:08:48.316Z,2.83
2018-03-07T23:11:14.408Z,2.83
2018-03-07T23:13:40.477Z,2.82
2018-03-07T23:16:06.553Z,2.81
2018-03-07T23:18:32.620Z,2.82
2018-03-07T23:20:58.831Z,2.81
2018-03-07T23:23:24.895Z,2.88
2018-03-07T23:25:50.940Z,2.92
2018-03-07T23:28:17.531Z,2.97
2018-03-07T23:30:43.592Z,2.99
2018-03-07T23:33:09.654Z,3.02
2018-03-07T23:35:35.726Z,3.13
2018-03-07T23:38:01.903Z,3.13
2018-03-07T23:40:27.967Z,3.19
2018-03-07T23:42:54.056Z,3.24
2018-03-07T23:45:20.131Z,3.27
2018-03-07T23:47:46.177Z,3.30
2018-03-07T23:50:12.444Z,3.37
2018-03-07T23:52:38.466Z,3.38
2018-03-07T23:55:04.524Z,3.46
2018-03-07T23:57:30.580Z,3.49
2018-03-07T23:59:56.641Z,3.56
